Terminal Aerodrome Forecast
Issued by NWS Brownsville, TX

Current Version | Previous Version | Text Only | Print | Product List | Glossary Off
Versions: 1 2 3 4 5 6 7 8 9 10 11 12 13 14 15 16 17 18 19 20 21 22 23 24 25 26 27

000
FTUS44 KBRO 012300
TAFBRO
TAF
KBRO 012320Z 0200/0224 13011G20KT P6SM VCSH FEW035
     FM020300 13010KT P6SM FEW020
     FM021500 13012KT P6SM VCSH BKN100
     FM021800 14015KT P6SM VCTS BKN050CB PROB30 0218/0224 VRB15G30KT
      4SM +TSRA BKN030CB OVC050=

USA.gov is the U.S. government's official web portal to all federal, state and local government web resources and services.